createdAt,value
2023-10-10T00:01:49.843Z,80.75
2023-10-10T00:04:22.570Z,80.63
2023-10-10T00:06:54.816Z,80.61
2023-10-10T00:09:28.162Z,80.48
2023-10-10T00:12:00.343Z,80.11
2023-10-10T00:14:32.514Z,80.29
2023-10-10T00:17:06.793Z,80.23
2023-10-10T00:19:45.230Z,80.19
2023-10-10T00:22:19.010Z,80.05
2023-10-10T00:24:54.361Z,79.95
2023-10-10T00:27:26.717Z,79.82
2023-10-10T00:30:03.530Z,80.09
2023-10-10T00:32:41.029Z,80.03
2023-10-10T00:35:13.185Z,80.21
2023-10-10T00:37:46.474Z,80.15
2023-10-10T00:40:30.755Z,80.05
2023-10-10T00:43:05.429Z,80.30
2023-10-10T00:45:37.517Z,80.27
2023-10-10T00:48:11.838Z,80.82
2023-10-10T00:50:44.463Z,80.75
2023-10-10T00:53:17.366Z,80.49
2023-10-10T00:55:56.712Z,80.44
2023-10-10T00:58:37.381Z,80.65
2023-10-10T01:01:11.661Z,80.52
2023-10-10T01:03:47.749Z,80.26
2023-10-10T01:06:26.135Z,80.54
2023-10-10T01:09:01.390Z,80.27
2023-10-10T01:11:33.296Z,80.22
2023-10-10T01:14:09.327Z,80.58
2023-10-10T01:16:41.488Z,80.42
2023-10-10T01:19:15.682Z,80.42
2023-10-10T01:21:53.038Z,80.67
2023-10-10T01:24:25.242Z,80.48
2023-10-10T01:27:04.918Z,80.59
2023-10-10T01:29:42.359Z,80.58
2023-10-10T01:32:14.435Z,81.06
2023-10-10T01:34:46.413Z,81.54
2023-10-10T01:37:22.410Z,81.67
2023-10-10T01:40:16.317Z,81.78
2023-10-10T01:42:55.467Z,81.82
2023-10-10T01:45:28.675Z,81.63
2023-10-10T01:48:04.505Z,81.67
2023-10-10T01:50:36.560Z,81.47
2023-10-10T01:53:11.174Z,81.52
2023-10-10T01:55:43.091Z,81.78
2023-10-10T01:58:20.864Z,81.67
2023-10-10T02:00:52.797Z,81.75
2023-10-10T02:03:25.734Z,81.50
2023-10-10T02:06:00.941Z,81.67
2023-10-10T02:08:35.909Z,81.21
2023-10-10T02:11:08.931Z,81.10
2023-10-10T02:13:40.907Z,81.29
2023-10-10T02:16:16.457Z,81.17
2023-10-10T02:18:52.644Z,81.30
2023-10-10T02:21:44.328Z,81.39
2023-10-10T02:24:36.822Z,81.72
2023-10-10T02:27:13.502Z,81.40
2023-10-10T02:29:51.013Z,81.21
2023-10-10T02:32:24.063Z,81.39
2023-10-10T02:35:15.519Z,81.43
2023-10-10T02:37:48.309Z,81.76
2023-10-10T02:40:20.116Z,81.76
2023-10-10T02:43:12.779Z,81.94
2023-10-10T02:45:46.500Z,81.85
2023-10-10T02:48:22.609Z,81.98
2023-10-10T02:50:54.495Z,81.76
2023-10-10T02:53:33.778Z,82.21
2023-10-10T02:56:11.106Z,82.35
2023-10-10T02:58:44.706Z,82.43
2023-10-10T03:01:41.820Z,82.58
2023-10-10T03:04:18.501Z,82.56
2023-10-10T03:06:50.637Z,82.59
2023-10-10T03:09:39.756Z,82.85
2023-10-10T03:12:19.044Z,82.74
2023-10-10T03:14:55.098Z,83.03
2023-10-10T03:17:44.684Z,83.05
2023-10-10T03:20:26.960Z,83.00
2023-10-10T03:23:24.976Z,83.23
2023-10-10T03:26:05.830Z,83.19
2023-10-10T03:28:48.270Z,83.09
2023-10-10T03:31:36.659Z,83.18
2023-10-10T03:34:20.246Z,83.32
2023-10-10T03:37:09.994Z,83.32
2023-10-10T03:39:51.073Z,83.44
2023-10-10T03:42:41.503Z,83.67
2023-10-10T03:45:36.318Z,83.53
2023-10-10T03:48:26.112Z,83.45
2023-10-10T03:51:15.233Z,83.60
2023-10-10T03:54:05.306Z,83.55
2023-10-10T03:56:54.775Z,83.61
2023-10-10T03:59:44.609Z,83.73
2023-10-10T04:02:34.642Z,83.62
2023-10-10T04:05:27.753Z,83.70
2023-10-10T04:08:17.996Z,83.87
2023-10-10T04:11:08.454Z,83.70
2023-10-10T04:13:57.827Z,83.85
2023-10-10T04:16:47.614Z,84.13
2023-10-10T04:19:37.152Z,84.03
2023-10-10T04:22:26.539Z,84.03
2023-10-10T04:25:16.042Z,84.03
2023-10-10T04:28:04.784Z,84.10
2023-10-10T04:30:54.160Z,83.98
2023-10-10T04:33:43.883Z,84.06
2023-10-10T04:36:33.011Z,84.29
2023-10-10T04:39:22.718Z,84.04
2023-10-10T04:42:12.376Z,83.99
2023-10-10T04:45:02.566Z,84.19
2023-10-10T04:47:52.285Z,84.14
2023-10-10T04:50:42.347Z,84.02
2023-10-10T04:53:36.794Z,83.91
2023-10-10T04:56:26.833Z,84.24
2023-10-10T04:59:16.356Z,84.19
2023-10-10T05:02:05.889Z,84.18
2023-10-10T05:04:54.967Z,84.18
2023-10-10T05:07:44.680Z,84.21
2023-10-10T05:10:34.198Z,84.46
2023-10-10T05:13:24.027Z,84.25
2023-10-10T05:16:13.493Z,84.39
2023-10-10T05:19:02.990Z,84.45
2023-10-10T05:21:52.608Z,84.57
2023-10-10T05:24:27.614Z,84.64
2023-10-10T05:27:01.373Z,84.59
2023-10-10T05:29:35.166Z,84.55
2023-10-10T05:32:10.175Z,84.70
2023-10-10T05:34:45.292Z,84.65
2023-10-10T05:37:17.436Z,84.66
2023-10-10T05:39:49.524Z,84.63
2023-10-10T05:42:26.650Z,84.61
2023-10-10T05:45:00.831Z,84.67
2023-10-10T05:47:32.868Z,84.63
2023-10-10T05:50:05.388Z,84.70
2023-10-10T05:52:39.398Z,84.80
2023-10-10T05:55:14.085Z,84.74
2023-10-10T05:57:47.380Z,84.72
2023-10-10T06:00:19.803Z,84.79
2023-10-10T06:02:54.070Z,84.87
2023-10-10T06:05:26.465Z,84.83
2023-10-10T06:08:00.100Z,85.02
2023-10-10T06:10:34.233Z,84.97
2023-10-10T06:13:08.205Z,85.09
2023-10-10T06:15:38.914Z,85.38
2023-10-10T06:18:13.813Z,85.55
2023-10-10T06:23:24.250Z,85.97
2023-10-10T06:26:00.977Z,86.05
2023-10-10T06:28:37.674Z,86.25
2023-10-10T06:31:12.142Z,86.14
2023-10-10T06:33:44.190Z,86.42
2023-10-10T06:36:37.217Z,86.66
2023-10-10T06:39:25.690Z,87.12
2023-10-10T06:41:59.863Z,87.22
2023-10-10T06:44:37.129Z,87.57
2023-10-10T06:47:13.302Z,88.07
2023-10-10T06:50:00.206Z,88.38
2023-10-10T06:52:37.840Z,88.44
2023-10-10T06:55:13.962Z,88.53
2023-10-10T06:57:53.410Z,88.55
2023-10-10T07:00:33.481Z,88.43
2023-10-10T07:03:05.729Z,88.70
2023-10-10T07:05:40.890Z,88.69
2023-10-10T07:08:20.927Z,88.57
2023-10-10T07:10:55.020Z,88.59
2023-10-10T07:13:31.016Z,89.84
2023-10-10T07:16:04.398Z,90.07
2023-10-10T07:18:36.509Z,89.31
2023-10-10T07:21:20.282Z,89.24
2023-10-10T07:24:04.497Z,88.89
2023-10-10T07:26:43.336Z,89.07
2023-10-10T07:29:29.363Z,88.94
2023-10-10T07:32:17.282Z,88.21
2023-10-10T07:34:52.318Z,88.04
2023-10-10T07:37:25.025Z,87.96
2023-10-10T07:40:10.388Z,88.00
2023-10-10T07:42:42.203Z,88.43
2023-10-10T07:45:15.742Z,88.16
2023-10-10T07:48:01.626Z,87.85
2023-10-10T07:50:37.003Z,87.39
2023-10-10T07:53:14.148Z,87.10
2023-10-10T07:56:02.534Z,86.98
2023-10-10T07:58:52.616Z,86.87
2023-10-10T08:01:25.613Z,86.57
2023-10-10T08:03:58.687Z,86.53
2023-10-10T08:06:34.629Z,86.25
2023-10-10T08:09:19.878Z,86.29
2023-10-10T08:11:56.523Z,85.88
2023-10-10T08:14:32.499Z,83.60
2023-10-10T08:17:20.052Z,83.28
2023-10-10T08:19:53.037Z,83.45
2023-10-10T08:22:27.895Z,80.93
2023-10-10T08:24:59.882Z,79.66
2023-10-10T08:27:34.628Z,76.52
2023-10-10T08:30:07.636Z,74.82
2023-10-10T08:32:40.014Z,75.28
2023-10-10T08:35:13.106Z,76.42
2023-10-10T08:37:48.158Z,75.54
2023-10-10T08:40:22.212Z,76.11
2023-10-10T08:42:52.759Z,75.15
2023-10-10T08:45:25.045Z,73.25
2023-10-10T08:48:02.068Z,72.99
2023-10-10T08:50:35.042Z,71.36
2023-10-10T08:53:08.022Z,69.85
2023-10-10T08:55:42.000Z,65.51
2023-10-10T08:58:13.914Z,64.17
2023-10-10T09:00:49.857Z,60.58
2023-10-10T09:03:22.260Z,61.89
2023-10-10T09:05:54.443Z,63.76
2023-10-10T09:08:29.133Z,62.99
2023-10-10T09:11:01.492Z,60.87
2023-10-10T09:13:33.426Z,60.28
2023-10-10T09:16:10.817Z,53.17
2023-10-10T09:18:43.505Z,53.12
2023-10-10T09:21:20.426Z,52.70
2023-10-10T09:24:09.290Z,55.27
2023-10-10T09:26:44.263Z,56.07
2023-10-10T09:29:34.170Z,55.54
2023-10-10T09:32:07.501Z,55.34
2023-10-10T09:34:43.087Z,54.29
2023-10-10T09:37:27.302Z,53.02
2023-10-10T09:40:00.669Z,53.40
2023-10-10T09:42:55.078Z,51.80
2023-10-10T09:45:54.243Z,51.35
2023-10-10T09:48:46.919Z,50.78
2023-10-10T09:51:32.926Z,52.70
2023-10-10T09:54:17.242Z,53.38
2023-10-10T09:56:55.301Z,52.92
2023-10-10T09:59:30.933Z,53.84
2023-10-10T10:02:06.351Z,54.00
2023-10-10T10:04:43.613Z,54.15
2023-10-10T10:07:39.255Z,54.33
2023-10-10T10:10:35.892Z,55.10
2023-10-10T10:13:20.820Z,54.89
2023-10-10T10:16:11.297Z,55.87
2023-10-10T10:18:53.330Z,55.56
2023-10-10T10:21:32.738Z,56.06
2023-10-10T10:24:27.730Z,56.71
2023-10-10T10:27:24.587Z,57.62
2023-10-10T10:30:09.870Z,57.95
2023-10-10T10:32:44.437Z,57.86
2023-10-10T10:35:22.930Z,57.67
2023-10-10T10:38:01.147Z,56.59
2023-10-10T10:40:49.440Z,56.81
2023-10-10T10:43:33.857Z,55.15
2023-10-10T10:46:16.499Z,54.72
2023-10-10T10:48:56.190Z,55.57
2023-10-10T10:51:32.792Z,55.99
2023-10-10T10:54:07.401Z,56.25
2023-10-10T10:56:46.992Z,55.99
2023-10-10T10:59:24.596Z,55.69
2023-10-10T11:01:58.478Z,55.50
2023-10-10T11:04:45.550Z,55.54
2023-10-10T11:07:28.428Z,55.12
2023-10-10T11:10:09.379Z,54.55
2023-10-10T11:12:41.556Z,53.84
2023-10-10T11:15:14.649Z,54.12
2023-10-10T11:18:09.430Z,54.34
2023-10-10T11:20:58.127Z,54.76
2023-10-10T11:23:43.208Z,54.45
2023-10-10T11:26:18.212Z,54.41
2023-10-10T11:28:50.345Z,54.20
2023-10-10T11:31:25.684Z,54.45
2023-10-10T11:34:12.466Z,54.21
2023-10-10T11:36:44.500Z,53.84
2023-10-10T11:39:35.490Z,54.43
2023-10-10T11:42:08.809Z,54.71
2023-10-10T11:44:43.046Z,54.58
2023-10-10T11:47:26.074Z,54.89
2023-10-10T11:50:02.801Z,54.79
2023-10-10T11:52:35.264Z,53.53
2023-10-10T11:55:09.319Z,52.91
2023-10-10T11:57:40.039Z,53.23
2023-10-10T12:00:27.156Z,53.17
2023-10-10T12:03:00.038Z,52.86
2023-10-10T12:05:48.607Z,53.38
2023-10-10T12:08:26.167Z,53.65
2023-10-10T12:11:07.785Z,52.63
2023-10-10T12:13:40.170Z,53.01
2023-10-10T12:16:13.029Z,53.51
2023-10-10T12:18:51.542Z,53.56
2023-10-10T12:21:24.655Z,53.68
2023-10-10T12:24:02.226Z,52.97
2023-10-10T12:26:40.149Z,52.28
2023-10-10T12:29:12.839Z,52.78
2023-10-10T12:31:44.718Z,53.26
2023-10-10T12:34:22.767Z,52.99
2023-10-10T12:37:00.877Z,51.52
2023-10-10T12:39:33.575Z,52.36
2023-10-10T12:42:05.603Z,52.65
2023-10-10T12:44:37.717Z,53.33
2023-10-10T12:47:09.624Z,52.85
2023-10-10T12:49:46.375Z,52.82
2023-10-10T12:52:20.101Z,52.00
2023-10-10T12:54:59.991Z,52.61
2023-10-10T12:57:34.484Z,52.64
2023-10-10T13:00:25.565Z,53.00
2023-10-10T13:02:58.063Z,52.98
2023-10-10T13:05:30.195Z,53.10
2023-10-10T13:08:07.782Z,52.98
2023-10-10T13:10:40.301Z,53.12
2023-10-10T13:13:16.598Z,52.83
2023-10-10T13:15:53.452Z,52.77
2023-10-10T13:18:26.750Z,51.40
2023-10-10T13:21:01.534Z,51.69
2023-10-10T13:23:36.983Z,52.20
2023-10-10T13:26:10.044Z,52.39
2023-10-10T13:28:47.014Z,52.28
2023-10-10T13:31:20.128Z,52.35
2023-10-10T13:33:52.772Z,52.28
2023-10-10T13:36:25.143Z,51.99
2023-10-10T13:38:59.838Z,52.09
2023-10-10T13:41:33.047Z,52.38
2023-10-10T13:44:05.897Z,52.44
2023-10-10T13:46:38.154Z,52.47
2023-10-10T13:49:11.304Z,52.37
2023-10-10T13:51:43.490Z,52.75
2023-10-10T13:54:17.401Z,52.78
2023-10-10T13:56:49.699Z,52.59
2023-10-10T13:59:22.875Z,52.97
2023-10-10T14:01:55.704Z,52.55
2023-10-10T14:04:29.024Z,52.53
2023-10-10T14:07:02.312Z,52.59
2023-10-10T14:09:42.535Z,52.12
2023-10-10T14:12:23.715Z,52.35
2023-10-10T14:14:55.491Z,52.69
2023-10-10T14:17:27.679Z,52.78
2023-10-10T14:20:00.706Z,52.60
2023-10-10T14:22:41.766Z,52.75
2023-10-10T14:25:24.604Z,53.04
2023-10-10T14:27:56.752Z,53.12
2023-10-10T14:30:28.621Z,52.98
2023-10-10T14:33:00.879Z,53.04
2023-10-10T14:35:32.831Z,53.28
2023-10-10T14:38:05.533Z,53.32
2023-10-10T14:40:37.613Z,53.50
2023-10-10T14:43:10.226Z,53.71
2023-10-10T14:45:44.839Z,53.85
2023-10-10T14:48:20.732Z,54.02
2023-10-10T14:50:54.629Z,54.07
2023-10-10T14:53:26.817Z,54.34
2023-10-10T14:55:58.764Z,54.50
2023-10-10T14:58:30.758Z,54.79
2023-10-10T15:01:04.184Z,54.99
2023-10-10T15:03:42.554Z,55.45
2023-10-10T15:06:17.367Z,55.83
2023-10-10T15:08:49.237Z,56.33
2023-10-10T15:11:21.139Z,56.46
2023-10-10T15:13:55.833Z,56.67
2023-10-10T15:16:28.987Z,56.71
2023-10-10T15:19:03.298Z,57.01
2023-10-10T15:21:35.224Z,57.19
2023-10-10T15:24:12.950Z,57.56
2023-10-10T15:26:47.574Z,57.62
2023-10-10T15:29:22.932Z,57.70
2023-10-10T15:31:57.596Z,58.02
2023-10-10T15:34:32.421Z,58.05
2023-10-10T15:37:11.346Z,58.08
2023-10-10T15:39:43.294Z,58.29
2023-10-10T15:42:15.087Z,58.35
2023-10-10T15:44:48.293Z,58.47
2023-10-10T15:47:20.195Z,58.61
2023-10-10T15:49:52.477Z,58.78
2023-10-10T15:52:24.283Z,58.81
2023-10-10T15:54:56.456Z,59.23
2023-10-10T15:57:28.230Z,59.03
2023-10-10T16:00:00.027Z,59.38
2023-10-10T16:02:32.236Z,59.42
2023-10-10T16:05:05.587Z,59.46
2023-10-10T16:07:38.744Z,59.44
2023-10-10T16:10:10.980Z,59.55
2023-10-10T16:12:44.454Z,59.94
2023-10-10T16:15:30.524Z,60.13
2023-10-10T16:18:05.728Z,60.67
2023-10-10T16:20:38.503Z,60.94
2023-10-10T16:23:10.865Z,60.98
2023-10-10T16:25:42.909Z,61.24
2023-10-10T16:28:14.673Z,61.30
2023-10-10T16:30:47.290Z,61.40
2023-10-10T16:33:22.320Z,61.84
2023-10-10T16:35:57.762Z,62.54
2023-10-10T16:38:36.675Z,62.51
2023-10-10T16:41:09.890Z,62.64
2023-10-10T16:46:17.935Z,63.02
2023-10-10T16:48:50.162Z,63.27
2023-10-10T16:51:22.260Z,63.27
2023-10-10T16:53:54.745Z,63.23
2023-10-10T16:56:27.716Z,63.50
2023-10-10T16:58:59.808Z,63.38
2023-10-10T17:01:31.832Z,63.57
2023-10-10T17:04:04.906Z,63.67
2023-10-10T17:06:37.495Z,63.76
2023-10-10T17:09:11.601Z,64.39
2023-10-10T17:11:42.318Z,64.35
2023-10-10T17:14:14.976Z,64.75
2023-10-10T17:16:47.318Z,65.11
2023-10-10T17:19:20.724Z,65.35
2023-10-10T17:21:52.762Z,65.52
2023-10-10T17:24:24.572Z,65.22
2023-10-10T17:26:56.596Z,65.41
2023-10-10T17:29:29.965Z,65.31
2023-10-10T17:32:02.391Z,65.63
2023-10-10T17:34:35.176Z,66.32
2023-10-10T17:37:10.311Z,66.23
2023-10-10T17:39:43.180Z,66.13
2023-10-10T17:42:14.929Z,66.05
2023-10-10T17:44:47.099Z,66.66
2023-10-10T17:47:19.228Z,66.93
2023-10-10T17:49:51.436Z,67.07
2023-10-10T17:52:25.040Z,67.54
2023-10-10T17:54:57.054Z,67.38
2023-10-10T17:57:29.069Z,67.19
2023-10-10T18:00:00.883Z,68.02
2023-10-10T18:02:33.635Z,68.43
2023-10-10T18:05:06.831Z,68.24
2023-10-10T18:07:39.754Z,68.44
2023-10-10T18:10:14.492Z,68.45
2023-10-10T18:12:46.556Z,69.14
2023-10-10T18:15:20.122Z,68.67
2023-10-10T18:17:52.788Z,68.69
2023-10-10T18:20:25.563Z,68.65
2023-10-10T18:22:58.407Z,69.23
2023-10-10T18:25:33.252Z,69.62
2023-10-10T18:28:07.502Z,69.55
2023-10-10T18:30:40.204Z,69.62
2023-10-10T18:33:13.053Z,69.49
2023-10-10T18:35:47.618Z,69.98
2023-10-10T18:38:22.669Z,70.12
2023-10-10T18:40:56.124Z,69.93
2023-10-10T18:43:28.446Z,70.49
2023-10-10T18:46:01.108Z,70.96
2023-10-10T18:48:34.743Z,71.18
2023-10-10T18:51:06.678Z,71.07
2023-10-10T18:53:38.720Z,70.80
2023-10-10T18:56:10.786Z,71.39
2023-10-10T18:58:42.601Z,72.29
2023-10-10T19:01:15.518Z,71.44
2023-10-10T19:03:48.984Z,70.87
2023-10-10T19:06:21.180Z,70.84
2023-10-10T19:08:54.676Z,71.25
2023-10-10T19:11:28.190Z,71.36
2023-10-10T19:14:01.453Z,71.88
2023-10-10T19:16:34.862Z,72.02
2023-10-10T19:19:07.167Z,71.92
2023-10-10T19:21:43.179Z,71.92
2023-10-10T19:24:16.256Z,72.50
2023-10-10T19:26:48.991Z,72.52
2023-10-10T19:29:22.562Z,72.64
2023-10-10T19:35:14.131Z,73.10
2023-10-10T19:41:19.437Z,73.57
2023-10-10T19:43:52.696Z,73.30
2023-10-10T19:46:25.751Z,73.64
2023-10-10T19:49:02.374Z,74.09
2023-10-10T19:51:34.537Z,74.05
2023-10-10T19:54:06.854Z,74.23
2023-10-10T19:56:39.170Z,74.49
2023-10-10T19:59:11.088Z,74.51
2023-10-10T20:01:44.347Z,74.76
2023-10-10T20:04:20.271Z,74.96
2023-10-10T20:06:53.612Z,75.44
2023-10-10T20:09:25.628Z,75.52
2023-10-10T20:11:57.678Z,75.19
2023-10-10T20:14:31.441Z,75.45
2023-10-10T20:17:03.713Z,75.44
2023-10-10T20:19:35.811Z,75.62
2023-10-10T20:22:07.698Z,76.03
2023-10-10T20:24:39.692Z,76.22
2023-10-10T20:27:11.729Z,76.16
2023-10-10T20:29:45.638Z,76.09
2023-10-10T20:32:17.653Z,76.76
2023-10-10T20:34:49.828Z,76.92
2023-10-10T20:37:21.837Z,76.96
2023-10-10T20:39:53.682Z,77.30
2023-10-10T20:42:25.792Z,77.28
2023-10-10T20:44:57.681Z,77.51
2023-10-10T20:47:29.806Z,77.64
2023-10-10T20:50:02.364Z,78.12
2023-10-10T20:52:34.293Z,78.26
2023-10-10T20:55:08.186Z,78.49
2023-10-10T20:57:39.345Z,77.76
2023-10-10T21:00:21.634Z,78.24
2023-10-10T21:02:55.088Z,77.78
2023-10-10T21:05:27.987Z,77.86
2023-10-10T21:08:01.268Z,77.88
2023-10-10T21:10:33.876Z,77.75
2023-10-10T21:13:06.164Z,78.11
2023-10-10T21:15:38.445Z,77.86
2023-10-10T21:18:10.794Z,77.89
2023-10-10T21:21:00.322Z,78.51
2023-10-10T21:23:35.365Z,78.03
2023-10-10T21:26:10.560Z,77.97
2023-10-10T21:28:42.679Z,78.63
2023-10-10T21:31:14.883Z,78.82
2023-10-10T21:33:47.094Z,78.71
2023-10-10T21:36:19.449Z,79.23
2023-10-10T21:38:51.733Z,79.41
2023-10-10T21:41:24.896Z,79.30
2023-10-10T21:43:56.809Z,79.33
2023-10-10T21:46:28.732Z,79.32
2023-10-10T21:49:00.614Z,79.20
2023-10-10T21:51:33.315Z,78.90
2023-10-10T21:54:05.198Z,78.98
2023-10-10T21:56:37.054Z,79.08
2023-10-10T21:59:10.354Z,79.25
2023-10-10T22:01:43.727Z,79.51
2023-10-10T22:04:16.106Z,79.58
2023-10-10T22:06:48.045Z,79.70
2023-10-10T22:09:20.398Z,79.70
2023-10-10T22:11:52.356Z,79.46
2023-10-10T22:14:25.412Z,79.22
2023-10-10T22:16:57.439Z,79.60
2023-10-10T22:19:29.549Z,79.78
2023-10-10T22:22:02.048Z,79.71
2023-10-10T22:24:36.951Z,79.51
2023-10-10T22:27:08.839Z,79.82
2023-10-10T22:29:40.980Z,79.99
2023-10-10T22:32:12.709Z,79.48
2023-10-10T22:34:44.686Z,79.51
2023-10-10T22:37:16.554Z,79.34
2023-10-10T22:39:48.619Z,79.19
2023-10-10T22:42:21.301Z,79.17
2023-10-10T22:44:55.079Z,78.95
2023-10-10T22:47:27.202Z,79.23
2023-10-10T22:50:02.053Z,79.35
2023-10-10T22:52:37.425Z,78.94
2023-10-10T22:55:11.405Z,79.08
2023-10-10T22:57:43.551Z,79.30
2023-10-10T23:00:26.889Z,79.34
2023-10-10T23:03:00.383Z,79.22
2023-10-10T23:05:34.336Z,79.62
2023-10-10T23:08:07.254Z,79.71
2023-10-10T23:10:41.203Z,80.14
2023-10-10T23:13:17.262Z,80.15
2023-10-10T23:15:50.348Z,80.18
2023-10-10T23:18:23.270Z,80.03
2023-10-10T23:20:56.749Z,80.16
2023-10-10T23:23:28.763Z,80.39
2023-10-10T23:26:00.660Z,80.47
2023-10-10T23:28:33.208Z,80.30
2023-10-10T23:31:05.170Z,80.31
2023-10-10T23:33:38.012Z,80.30
2023-10-10T23:36:12.696Z,80.37
2023-10-10T23:38:45.882Z,80.60
2023-10-10T23:41:19.568Z,80.95
2023-10-10T23:43:51.622Z,80.80
2023-10-10T23:46:24.259Z,81.16
2023-10-10T23:48:58.881Z,81.54
2023-10-10T23:51:32.750Z,81.48
2023-10-10T23:54:05.731Z,81.43
2023-10-10T23:56:37.929Z,81.46
2023-10-10T23:59:11.261Z,81.67
